Time;durP1;ratioP1;P1;durP2;ratioP2;P2;SDS_P1;SDS_P2;PMS_P1;PMS_P2;Temp;Humidity;BMP_temperature;BMP_pressure;BME280_temperature;BME280_humidity;BME280_pressure;Samples;Min_cycle;Max_cycle;Signal;HPM_P1;HPM_P2
2022/12/14 00:01:17;;;;;;;;;29.25;25.75;;;;;4.63;90.46;99839.13;5112003;27;45562;-75
2022/12/14 00:03:43;;;;;;;;;36.75;28.25;;;;;4.63;90.55;99833.91;5111518;27;45457;-74
2022/12/14 00:06:13;;;;;;;;;33.25;27.25;;;;;4.63;90.39;99838.25;5129997;27;45751;-76
2022/12/14 00:08:39;;;;;;;;;27.75;27.75;;;;;4.66;90.23;99849.66;5113374;27;45634;-75
2022/12/14 00:11:05;;;;;;;;;27.25;24.50;;;;;4.65;90.08;99847.03;5116708;27;45482;-75
2022/12/14 00:13:31;;;;;;;;;34.25;26.75;;;;;4.68;90.76;99855.78;5112644;27;45160;-75
2022/12/14 00:15:56;;;;;;;;;21.00;15.50;;;;;4.69;90.39;99851.47;5116483;27;46590;-77
2022/12/14 00:18:21;;;;;;;;;38.00;28.50;;;;;4.68;90.68;99844.44;5115642;27;45280;-77
2022/12/14 00:20:47;;;;;;;;;31.00;25.25;;;;;4.70;90.73;99850.59;5115988;27;45591;-74
2022/12/14 00:23:12;;;;;;;;;29.75;26.25;;;;;4.73;90.48;99851.53;5115764;27;45471;-76
2022/12/14 00:25:38;;;;;;;;;34.50;29.50;;;;;4.71;90.41;99848.00;5116540;27;45826;-76
2022/12/14 00:28:03;;;;;;;;;23.25;21.50;;;;;4.75;90.44;99842.84;5115198;27;45434;-75
2022/12/14 00:30:28;;;;;;;;;36.00;26.50;;;;;4.71;90.28;99832.31;5117449;27;45835;-75
2022/12/14 00:32:54;;;;;;;;;32.50;24.75;;;;;4.78;90.47;99832.44;5119881;27;45198;-76
2022/12/14 00:35:19;;;;;;;;;30.25;23.75;;;;;4.78;90.64;99833.31;5120173;27;46888;-75
2022/12/14 00:37:45;;;;;;;;;24.75;19.00;;;;;4.75;90.37;99820.19;5136391;27;45630;-74
2022/12/14 00:40:11;;;;;;;;;33.75;26.25;;;;;4.78;90.53;99821.97;5119936;27;47501;-74
2022/12/14 00:42:36;;;;;;;;;37.00;25.00;;;;;4.77;90.85;99813.25;5119769;27;45400;-74
2022/12/14 00:45:04;;;;;;;;;34.25;28.50;;;;;4.79;90.41;99810.66;5117794;27;45477;-75
2022/12/14 00:47:29;;;;;;;;;30.75;24.00;;;;;4.82;90.35;99818.56;5118358;27;46390;-75
2022/12/14 00:49:54;;;;;;;;;32.50;28.50;;;;;4.80;90.76;99817.66;5118682;27;45673;-77
2022/12/14 00:52:20;;;;;;;;;34.50;25.25;;;;;4.82;90.34;99829.91;5119585;27;46510;-75
2022/12/14 00:54:46;;;;;;;;;27.00;23.50;;;;;4.82;90.73;99826.41;5108206;27;46317;-75
2022/12/14 00:57:11;;;;;;;;;27.25;22.00;;;;;4.81;90.25;99815.06;5118972;27;45163;-74
2022/12/14 00:59:36;;;;;;;;;34.75;22.50;;;;;4.81;90.41;99812.47;5097645;27;45363;-74
2022/12/14 01:02:02;;;;;;;;;25.75;22.50;;;;;4.84;90.19;99812.50;5119917;27;45448;-77
2022/12/14 01:04:27;;;;;;;;;23.25;23.00;;;;;4.84;90.53;99817.72;5117431;27;45489;-74
2022/12/14 01:06:53;;;;;;;;;29.75;21.50;;;;;4.83;90.26;99815.97;5118556;27;45503;-77
2022/12/14 01:09:20;;;;;;;;;26.75;23.25;;;;;4.85;90.07;99814.28;5118008;27;45246;-74
2022/12/14 01:11:46;;;;;;;;;25.25;23.50;;;;;4.84;90.40;99836.03;5112444;27;45623;-75
2022/12/14 01:14:14;;;;;;;;;24.25;22.25;;;;;4.82;90.18;99824.66;5118056;27;45499;-76
2022/12/14 01:16:39;;;;;;;;;26.75;21.75;;;;;4.84;90.06;99838.63;5118851;27;45602;-74
2022/12/14 01:19:05;;;;;;;;;21.00;18.75;;;;;4.85;89.94;99845.66;5114183;27;45421;-74
2022/12/14 01:21:31;;;;;;;;;33.50;24.25;;;;;4.83;90.06;99842.13;5116699;27;45435;-75
2022/12/14 01:23:58;;;;;;;;;28.50;22.75;;;;;4.82;90.41;99849.94;5111638;27;46569;-75
2022/12/14 01:26:25;;;;;;;;;27.50;21.75;;;;;4.85;90.25;99856.13;5118075;27;45479;-74
2022/12/14 01:28:55;;;;;;;;;22.75;19.00;;;;;4.85;90.08;99844.78;5113972;27;45351;-75
2022/12/14 01:31:22;;;;;;;;;38.50;22.75;;;;;4.87;90.48;99845.69;5117929;27;45590;-74
2022/12/14 01:33:48;;;;;;;;;34.25;24.25;;;;;4.87;90.19;99830.88;5119537;27;45672;-75
2022/12/14 01:36:24;;;;;;;;;29.50;22.00;;;;;4.85;90.15;99839.56;5111339;27;45659;-75
2022/12/14 01:38:55;;;;;;;;;26.25;21.50;;;;;4.85;90.05;99839.56;5114580;27;45499;-75
2022/12/14 01:41:29;;;;;;;;;21.00;17.00;;;;;4.87;89.82;99857.03;5102461;27;45552;-74
2022/12/14 01:44:15;;;;;;;;;33.25;23.50;;;;;4.86;90.11;99855.25;5118419;27;46576;-74
2022/12/14 01:46:47;;;;;;;;;16.00;6.50;;;;;4.85;90.18;99855.25;5082438;27;45352;-74
2022/12/14 01:49:13;;;;;;;;;24.25;19.75;;;;;4.89;90.21;99859.66;5115603;27;45366;-77
2022/12/14 01:51:41;;;;;;;;;25.25;21.50;;;;;4.86;90.63;99857.00;5118465;27;45291;-74
2022/12/14 01:54:08;;;;;;;;;19.00;18.25;;;;;4.87;90.92;99854.41;5117663;27;46811;-75
2022/12/14 01:56:36;;;;;;;;;24.50;17.75;;;;;4.89;91.36;99846.56;5117878;27;45267;-74
2022/12/14 01:59:06;;;;;;;;;26.75;18.50;;;;;4.88;91.74;99842.19;5114373;27;45374;-77
2022/12/14 02:01:32;;;;;;;;;25.50;19.00;;;;;4.88;91.96;99850.06;5117372;27;45468;-75
2022/12/14 02:03:57;;;;;;;;;25.00;18.50;;;;;4.84;92.42;99849.09;5113384;27;45285;-74
2022/12/14 02:06:31;;;;;;;;;26.25;19.25;;;;;4.86;93.18;99851.78;5115908;27;45558;-75
2022/12/14 02:08:57;;;;;;;;;25.75;23.50;;;;;4.81;93.54;99838.59;5117683;27;45312;-74
2022/12/14 02:11:41;;;;;;;;;22.75;19.00;;;;;4.85;93.94;99845.66;5113200;27;45527;-76
2022/12/14 02:14:06;;;;;;;;;21.75;19.50;;;;;4.83;94.06;99830.78;5118364;27;46242;-78
2022/12/14 02:16:32;;;;;;;;;27.50;18.00;;;;;4.81;94.35;99833.38;5114247;27;45405;-74
2022/12/14 02:18:57;;;;;;;;;22.75;21.75;;;;;4.80;94.17;99810.69;5118431;27;45277;-74
2022/12/14 02:21:42;;;;;;;;;27.25;20.00;;;;;4.84;94.97;99802.03;5132633;27;45331;-76
2022/12/14 02:24:13;;;;;;;;;20.75;20.75;;;;;4.81;95.41;99798.50;5113665;27;46734;-79
2022/12/14 02:26:51;;;;;;;;;34.50;24.75;;;;;4.82;95.51;99792.41;5120881;27;45739;-75
2022/12/14 02:29:29;;;;;;;;;22.00;16.00;;;;;4.76;95.84;99766.16;5117273;27;45474;-76
2022/12/14 02:32:27;;;;;;;;;18.25;15.25;;;;;4.78;96.52;99759.22;5133640;27;45611;-75
2022/12/14 02:34:58;;;;;;;;;24.00;21.00;;;;;4.75;96.78;99749.59;5081506;27;45609;-78
2022/12/14 02:37:33;;;;;;;;;21.00;19.25;;;;;4.76;97.23;99759.19;5114903;27;45378;-75
2022/12/14 02:40:44;;;;;;;;;30.00;22.25;;;;;4.71;97.93;99779.16;5117000;27;45624;-74
2022/12/14 02:43:30;;;;;;;;;36.25;25.00;;;;;4.69;98.88;99776.53;5099052;27;45464;-75
2022/12/14 02:46:03;;;;;;;;;32.00;26.25;;;;;4.66;99.03;99784.28;5115252;27;45499;-76
2022/12/14 02:48:36;;;;;;;;;25.25;21.50;;;;;4.62;99.44;99763.28;5117401;27;45309;-74
2022/12/14 02:51:07;;;;;;;;;31.25;23.25;;;;;4.63;99.96;99757.19;5116867;27;46105;-74
2022/12/14 02:53:44;;;;;;;;;20.00;19.75;;;;;4.61;100.00;99757.19;5116298;27;45450;-75
2022/12/14 02:56:15;;;;;;;;;34.75;19.00;;;;;4.56;100.00;99748.38;5116628;27;47431;-76
2022/12/14 02:58:49;;;;;;;;;25.50;21.25;;;;;4.57;100.00;99751.88;5115308;27;45242;-74
2022/12/14 03:01:16;;;;;;;;;34.25;22.00;;;;;4.56;100.00;99737.94;5116472;27;45400;-76
2022/12/14 03:03:42;;;;;;;;;24.75;20.00;;;;;4.53;100.00;99731.75;5114397;27;45633;-75
2022/12/14 03:06:14;;;;;;;;;28.25;18.75;;;;;4.53;100.00;99739.59;5133284;27;46609;-76
2022/12/14 03:08:42;;;;;;;;;27.00;18.50;;;;;4.52;100.00;99750.91;5116461;27;45534;-74
2022/12/14 03:11:10;;;;;;;;;29.50;22.75;;;;;4.49;100.00;99751.75;5116313;27;45449;-75
2022/12/14 03:13:46;;;;;;;;;25.50;19.50;;;;;4.50;100.00;99743.03;5115758;27;45515;-74
2022/12/14 03:16:24;;;;;;;;;26.00;19.00;;;;;4.52;100.00;99756.13;5116018;27;47104;-77
2022/12/14 03:18:55;;;;;;;;;23.50;21.50;;;;;4.51;100.00;99750.03;5116373;27;45564;-76
2022/12/14 03:21:25;;;;;;;;;19.75;19.00;;;;;4.49;100.00;99736.06;5115832;27;45443;-76
2022/12/14 03:23:51;;;;;;;;;22.00;19.50;;;;;4.52;100.00;99735.22;5116678;27;45354;-75
2022/12/14 03:26:24;;;;;;;;;23.50;20.25;;;;;4.52;100.00;99740.44;5113562;27;45866;-74
2022/12/14 03:28:53;;;;;;;;;25.50;19.50;;;;;4.50;100.00;99742.16;5124851;27;45669;-74
2022/12/14 03:31:37;;;;;;;;;24.75;17.25;;;;;4.52;100.00;99745.69;5115984;27;47087;-77
2022/12/14 03:34:05;;;;;;;;;26.75;22.75;;;;;4.51;100.00;99750.03;5116107;27;45393;-75
2022/12/14 03:36:43;;;;;;;;;25.25;21.75;;;;;4.50;100.00;99739.56;5115359;27;45977;-75
2022/12/14 03:39:13;;;;;;;;;29.00;19.25;;;;;4.53;100.00;99752.66;5098050;27;45478;-77
2022/12/14 03:41:39;;;;;;;;;25.50;23.00;;;;;4.54;100.00;99754.44;5114862;27;45411;-74
2022/12/14 03:44:42;;;;;;;;;26.25;19.50;;;;;4.52;100.00;99746.56;5117295;27;45595;-74
2022/12/14 03:47:31;;;;;;;;;29.75;25.50;;;;;4.54;100.00;99739.66;5105342;27;46192;-74
2022/12/14 03:50:11;;;;;;;;;23.50;22.25;;;;;4.54;100.00;99726.56;5116531;27;45309;-76
2022/12/14 03:52:59;;;;;;;;;28.75;21.25;;;;;4.53;100.00;99730.03;5117325;27;45306;-74
2022/12/14 03:55:36;;;;;;;;;23.25;15.00;;;;;4.51;100.00;99718.66;5114997;27;45348;-75
2022/12/14 03:58:17;;;;;;;;;34.50;20.25;;;;;4.54;100.00;99721.34;5111098;27;47350;-74
2022/12/14 04:00:52;;;;;;;;;23.25;15.50;;;;;4.54;100.00;99715.25;5111838;27;45488;-75
2022/12/14 04:03:39;;;;;;;;;21.00;17.50;;;;;4.54;100.00;99713.50;5115716;27;45328;-75
2022/12/14 04:06:29;;;;;;;;;25.75;21.25;;;;;4.52;100.00;99723.03;5113686;27;45581;-75
2022/12/14 04:09:31;;;;;;;;;23.75;19.25;;;;;4.53;100.00;99719.59;5113957;27;45389;-75
2022/12/14 04:20:47;;;;;;;;;22.75;12.00;;;;;4.50;100.00;99703.84;5115106;27;45380;-75
2022/12/14 04:26:03;;;;;;;;;26.75;18.75;;;;;4.48;100.00;99702.94;5115379;27;45298;-74
2022/12/14 04:26:06;;;;;;;;;29.50;22.75;;;;;4.45;100.00;99689.81;5113836;27;45623;-75
2022/12/14 04:31:31;;;;;;;;;24.00;21.25;;;;;4.50;100.00;99684.66;5114445;27;47223;-76
2022/12/14 04:34:01;;;;;;;;;31.50;21.00;;;;;4.46;100.00;99684.59;5097904;27;45408;-75
2022/12/14 04:36:41;;;;;;;;;22.25;18.25;;;;;4.50;100.00;99702.97;5114318;27;45631;-74
2022/12/14 04:39:12;;;;;;;;;26.50;19.00;;;;;4.49;100.00;99704.69;5114629;27;45556;-75
2022/12/14 04:41:42;;;;;;;;;24.50;19.00;;;;;4.50;100.00;99711.69;5117991;27;45274;-76
2022/12/14 04:44:32;;;;;;;;;20.75;18.00;;;;;4.51;100.00;99709.94;5117680;27;45543;-75
2022/12/14 04:46:58;;;;;;;;;17.25;16.75;;;;;4.47;100.00;99703.78;5114605;27;45311;-75
2022/12/14 04:49:48;;;;;;;;;18.00;15.00;;;;;4.51;100.00;99708.22;5116587;27;45302;-75
2022/12/14 04:52:24;;;;;;;;;27.50;22.50;;;;;4.49;100.00;99704.69;5115557;27;46593;-75
2022/12/14 04:57:56;;;;;;;;;24.50;19.25;;;;;4.52;100.00;99730.88;5195288;22;45552;-77
2022/12/14 05:00:22;;;;;;;;;25.00;20.75;;;;;4.50;100.00;99723.88;5074442;28;45308;-75
2022/12/14 05:03:10;;;;;;;;;20.00;19.00;;;;;4.54;100.00;99729.19;5056777;28;46093;-77
2022/12/14 05:05:44;;;;;;;;;22.25;18.25;;;;;4.53;100.00;99732.66;5055041;27;45537;-74
2022/12/14 05:08:20;;;;;;;;;34.25;17.75;;;;;4.51;100.00;99721.28;5058279;28;45494;-74
2022/12/14 05:10:56;;;;;;;;;19.75;11.75;;;;;4.53;100.00;99716.06;5074491;27;45565;-75
2022/12/14 05:13:30;;;;;;;;;20.25;19.00;;;;;4.53;100.00;99711.75;5054126;28;46637;-74
2022/12/14 05:15:57;;;;;;;;;21.50;15.50;;;;;4.54;100.00;99708.28;5040417;28;45523;-77
2022/12/14 05:18:22;;;;;;;;;27.50;21.25;;;;;4.54;100.00;99705.66;5078810;28;45261;-78
2022/12/14 05:20:48;;;;;;;;;22.75;19.75;;;;;4.55;100.00;99704.81;5059125;27;45658;-75
2022/12/14 05:23:14;;;;;;;;;25.00;19.00;;;;;4.53;100.00;99703.91;5037407;28;46527;-76
2022/12/14 05:25:40;;;;;;;;;34.00;21.50;;;;;4.55;100.00;99698.69;5078013;27;45351;-74
2022/12/14 05:28:06;;;;;;;;;29.75;20.50;;;;;4.55;100.00;99690.84;5054838;28;45248;-79
2022/12/14 05:30:31;;;;;;;;;22.75;17.00;;;;;4.52;100.00;99682.94;5060524;28;45486;-76
2022/12/14 05:32:57;;;;;;;;;19.50;15.50;;;;;4.54;100.00;99699.56;5079483;27;45481;-77
2022/12/14 05:35:22;;;;;;;;;23.75;20.00;;;;;4.53;100.00;99695.16;5042900;28;45528;-77
2022/12/14 05:37:48;;;;;;;;;28.25;18.00;;;;;4.55;100.00;99698.69;5058034;28;45385;-75
2022/12/14 05:40:13;;;;;;;;;25.50;14.50;;;;;4.56;100.00;99697.84;5033369;28;45668;-74
2022/12/14 05:42:39;;;;;;;;;23.75;18.50;;;;;4.55;100.00;99709.16;5047181;28;45805;-75
2022/12/14 05:45:05;;;;;;;;;22.50;16.50;;;;;4.56;100.00;99710.91;5070911;27;45461;-73
2022/12/14 05:47:30;;;;;;;;;24.00;16.75;;;;;4.54;100.00;99707.41;5048586;28;45418;-77
2022/12/14 05:49:55;;;;;;;;;28.25;20.00;;;;;4.55;100.00;99707.41;5077154;27;45680;-74
2022/12/14 05:52:25;;;;;;;;;22.50;18.75;;;;;4.55;100.00;99719.59;5076623;27;48795;-74
2022/12/14 05:54:50;;;;;;;;;25.50;16.00;;;;;4.55;100.00;99725.72;5077265;27;45475;-74
2022/12/14 05:57:15;;;;;;;;;21.25;15.50;;;;;4.55;100.00;99724.84;5077202;27;45514;-77
2022/12/14 05:59:41;;;;;;;;;22.50;19.00;;;;;4.55;100.00;99737.91;5077192;27;45538;-74
2022/12/14 06:02:06;;;;;;;;;27.50;21.75;;;;;4.58;100.00;99743.16;5076651;27;48884;-76
2022/12/14 06:04:31;;;;;;;;;25.50;20.50;;;;;4.58;100.00;99744.09;5075724;27;46315;-76
2022/12/14 06:06:57;;;;;;;;;19.00;15.00;;;;;4.56;100.00;99737.03;5060200;28;45350;-75
2022/12/14 06:09:22;;;;;;;;;22.75;20.00;;;;;4.58;100.00;99736.25;5077243;27;45372;-77
2022/12/14 06:11:48;;;;;;;;;30.25;19.75;;;;;4.56;100.00;99735.31;5055724;28;46325;-77
2022/12/14 06:14:15;;;;;;;;;28.00;19.50;;;;;4.58;100.00;99741.47;5073554;27;45520;-76
2022/12/14 06:16:42;;;;;;;;;25.75;20.75;;;;;4.61;100.00;99749.34;5079550;27;45490;-77
2022/12/14 06:19:07;;;;;;;;;23.25;20.00;;;;;4.58;100.00;99736.25;5058881;28;45578;-75
2022/12/14 06:21:35;;;;;;;;;28.00;14.75;;;;;4.61;100.00;99744.13;5056000;27;46363;-74
2022/12/14 06:24:01;;;;;;;;;22.25;17.75;;;;;4.61;100.00;99741.50;5075473;28;45546;-74
2022/12/14 06:26:28;;;;;;;;;27.00;17.75;;;;;4.61;100.00;99745.84;5058788;27;45534;-77
2022/12/14 06:28:54;;;;;;;;;25.50;17.00;;;;;4.62;100.00;99745.88;5076994;27;45374;-77
2022/12/14 06:31:22;;;;;;;;;23.00;18.25;;;;;4.62;100.00;99739.75;5071663;27;46822;-77
2022/12/14 06:33:48;;;;;;;;;22.75;17.50;;;;;4.62;100.00;99742.38;5073326;27;45446;-75
2022/12/14 06:36:22;;;;;;;;;22.25;19.00;;;;;4.61;100.00;99741.50;5058964;28;45415;-76
2022/12/14 06:38:52;;;;;;;;;29.50;21.00;;;;;4.61;100.00;99738.00;5073818;27;45381;-75
2022/12/14 06:41:18;;;;;;;;;22.00;17.75;;;;;4.62;100.00;99740.63;5076711;27;46034;-74
2022/12/14 06:43:44;;;;;;;;;32.50;22.50;;;;;4.60;100.00;99736.25;5054923;27;45632;-77
2022/12/14 06:46:14;;;;;;;;;21.25;19.50;;;;;4.60;100.00;99744.09;5055318;28;45387;-74
2022/12/14 06:48:39;;;;;;;;;27.75;22.00;;;;;4.59;100.00;99744.97;5081299;27;45224;-77
2022/12/14 06:51:05;;;;;;;;;22.00;21.75;;;;;4.58;100.00;99740.56;5058406;28;45273;-74
2022/12/14 06:53:32;;;;;;;;;21.00;18.00;;;;;4.58;100.00;99744.09;5077414;28;45268;-72
2022/12/14 06:56:08;;;;;;;;;24.50;19.00;;;;;4.57;100.00;99746.66;5073047;27;45507;-74
2022/12/14 06:58:34;;;;;;;;;24.50;20.00;;;;;4.58;100.00;99745.78;5066709;27;45573;-73
2022/12/14 07:01:04;;;;;;;;;42.75;33.50;;;;;4.61;100.00;99756.31;5055577;28;47799;-73
2022/12/14 07:03:30;;;;;;;;;41.00;26.25;;;;;4.57;100.00;99755.38;5053200;28;45309;-74
2022/12/14 07:05:59;;;;;;;;;35.50;29.00;;;;;4.56;100.00;99771.91;5051747;27;45516;-74
2022/12/14 07:08:26;;;;;;;;;37.75;22.50;;;;;4.57;100.00;99778.88;5069329;27;45524;-74
2022/12/14 07:10:52;;;;;;;;;33.25;22.25;;;;;4.57;100.00;99778.00;5074805;28;45860;-75
2022/12/14 07:13:18;;;;;;;;;29.25;20.00;;;;;4.57;100.00;99780.63;5068483;27;45573;-77
2022/12/14 07:15:43;;;;;;;;;19.75;18.75;;;;;4.55;100.00;99782.34;5046236;28;45493;-75
2022/12/14 07:18:09;;;;;;;;;31.00;23.75;;;;;4.57;100.00;99796.31;5041930;28;45699;-74
2022/12/14 07:20:34;;;;;;;;;24.50;16.00;;;;;4.58;100.00;99793.75;5043877;28;48293;-76
2022/12/14 07:23:00;;;;;;;;;28.00;22.75;;;;;4.57;100.00;99801.53;5059777;27;45406;-76
2022/12/14 07:25:26;;;;;;;;;36.50;25.25;;;;;4.54;100.00;99791.03;5059623;27;45600;-74
2022/12/14 07:27:51;;;;;;;;;38.25;26.25;;;;;4.52;100.00;99792.72;5039870;28;45682;-74
2022/12/14 07:30:16;;;;;;;;;28.75;19.25;;;;;4.53;100.00;99805.84;5060885;27;45575;-75
2022/12/14 07:32:42;;;;;;;;;26.25;21.75;;;;;4.53;100.00;99805.84;5066631;27;45708;-75
2022/12/14 07:35:08;;;;;;;;;39.75;29.75;;;;;4.52;100.00;99813.63;5055638;27;45493;-77
2022/12/14 07:37:33;;;;;;;;;27.00;21.75;;;;;4.52;100.00;99822.34;5074190;28;45473;-75
2022/12/14 07:39:58;;;;;;;;;27.75;19.50;;;;;4.53;100.00;99818.00;5067629;27;46704;-75
2022/12/14 07:42:24;;;;;;;;;29.00;23.25;;;;;4.50;100.00;99821.47;5074005;27;45500;-74
2022/12/14 07:44:49;;;;;;;;;29.75;18.00;;;;;4.52;100.00;99824.09;5071723;27;45539;-77
2022/12/14 07:47:15;;;;;;;;;23.25;19.25;;;;;4.49;100.00;99819.72;5080153;27;45361;-74
2022/12/14 07:49:40;;;;;;;;;25.25;19.50;;;;;4.51;100.00;99824.97;5074963;28;45989;-74
2022/12/14 07:52:05;;;;;;;;;30.25;18.75;;;;;4.51;100.00;99824.97;5066444;27;48426;-73
2022/12/14 07:54:31;;;;;;;;;20.50;17.25;;;;;4.47;100.00;99817.06;5049419;28;45434;-76
2022/12/14 07:56:56;;;;;;;;;23.67;22.00;;;;;4.49;100.00;99819.72;5029468;28;1212662;-75
2022/12/14 07:59:22;;;;;;;;;27.25;18.25;;;;;4.52;100.00;99817.13;5058019;28;46261;-74
2022/12/14 08:01:47;;;;;;;;;26.50;18.50;;;;;4.53;100.00;99820.63;5075225;27;45469;-75
2022/12/14 08:04:15;;;;;;;;;26.50;24.25;;;;;4.54;100.00;99823.28;5058869;28;45427;-73
2022/12/14 08:06:41;;;;;;;;;23.00;19.25;;;;;4.57;100.00;99823.34;5066185;27;45383;-74
2022/12/14 08:09:08;;;;;;;;;24.50;18.00;;;;;4.57;100.00;99827.69;5071858;27;46528;-74
2022/12/14 08:11:33;;;;;;;;;24.00;20.75;;;;;4.57;100.00;99832.91;5075014;28;45309;-73
2022/12/14 08:14:09;;;;;;;;;25.75;18.25;;;;;4.63;100.00;99835.63;5053796;27;45494;-75
2022/12/14 08:16:34;;;;;;;;;28.50;22.25;;;;;4.66;100.00;99840.94;5044925;28;46513;-74
2022/12/14 08:19:00;;;;;;;;;27.50;22.50;;;;;4.65;100.00;99826.97;5056264;27;47960;-74
2022/12/14 08:21:26;;;;;;;;;21.50;15.75;;;;;4.66;100.00;99831.34;5072578;27;45407;-74
2022/12/14 08:23:53;;;;;;;;;18.25;16.75;;;;;4.70;100.00;99840.16;5062378;27;45407;-74
2022/12/14 08:26:20;;;;;;;;;24.00;19.50;;;;;4.72;100.00;99841.91;5075617;27;45546;-75
2022/12/14 08:28:45;;;;;;;;;26.50;21.25;;;;;4.72;100.00;99834.06;5044445;28;46800;-75
2022/12/14 08:31:16;;;;;;;;;21.50;19.75;;;;;4.74;100.00;99834.13;5059770;27;45554;-75
2022/12/14 08:33:43;;;;;;;;;23.00;21.75;;;;;4.80;100.00;99849.06;5056153;28;45467;-75
2022/12/14 08:36:11;;;;;;;;;30.75;18.75;;;;;4.83;100.00;99847.34;5059567;28;45427;-75
2022/12/14 08:38:37;;;;;;;;;29.75;20.50;;;;;4.87;100.00;99853.53;5042601;27;48870;-74
2022/12/14 08:41:04;;;;;;;;;27.50;19.25;;;;;4.89;100.00;99831.75;5063334;28;45531;-76
2022/12/14 08:43:29;;;;;;;;;24.00;22.50;;;;;4.90;100.00;99833.53;5046160;28;45375;-74
2022/12/14 08:45:55;;;;;;;;;28.50;22.00;;;;;4.94;100.00;99844.94;5055049;28;45454;-75
2022/12/14 08:48:20;;;;;;;;;31.75;22.00;;;;;4.98;100.00;99854.59;5056421;28;49292;-74
2022/12/14 08:50:45;;;;;;;;;23.00;22.00;;;;;5.00;100.00;99852.88;5051934;28;59579;-76
2022/12/14 08:53:11;;;;;;;;;21.50;18.75;;;;;5.06;100.00;99850.38;5057538;28;45464;-76
2022/12/14 08:55:36;;;;;;;;;25.00;16.50;;;;;5.07;100.00;99853.88;5063768;27;48813;-75
2022/12/14 08:58:01;;;;;;;;;31.50;18.50;;;;;5.09;100.00;99866.13;5061175;28;54242;-75
2022/12/14 09:00:27;;;;;;;;;27.25;22.75;;;;;5.11;100.00;99869.63;5043415;28;45555;-74
2022/12/14 09:02:53;;;;;;;;;33.75;23.75;;;;;5.12;100.00;99875.78;5061861;27;45602;-72
2022/12/14 09:05:18;;;;;;;;;31.25;22.25;;;;;5.09;100.00;99855.66;5064853;27;45510;-74
2022/12/14 09:07:44;;;;;;;;;31.25;25.25;;;;;5.09;100.00;99862.63;5066357;27;46525;-75
2022/12/14 09:10:09;;;;;;;;;33.75;27.00;;;;;5.12;100.00;99858.34;5064482;27;45525;-76
2022/12/14 09:12:35;;;;;;;;;27.00;20.25;;;;;5.16;100.00;99872.34;5065118;27;45585;-74
2022/12/14 09:15:00;;;;;;;;;26.00;18.50;;;;;5.20;100.00;99885.50;5065968;27;45513;-74
2022/12/14 09:17:26;;;;;;;;;30.00;22.50;;;;;5.24;100.00;99884.72;5065338;27;46504;-75
2022/12/14 09:19:51;;;;;;;;;33.25;19.75;;;;;5.31;100.00;99898.78;5064456;27;45424;-74
2022/12/14 09:22:17;;;;;;;;;33.25;25.75;;;;;5.35;100.00;99889.25;5061992;28;55356;-73
2022/12/14 09:24:42;;;;;;;;;31.25;23.00;;;;;5.38;100.00;99900.66;5066573;28;45446;-76
2022/12/14 09:27:07;;;;;;;;;32.25;26.50;;;;;5.45;100.00;99902.50;5065490;27;46705;-73
2022/12/14 09:29:33;;;;;;;;;34.75;23.75;;;;;5.48;100.00;99909.53;5033135;27;46260;-74
2022/12/14 09:31:58;;;;;;;;;31.50;24.25;;;;;5.48;100.00;99907.78;5062132;28;51694;-75
2022/12/14 09:34:24;;;;;;;;;31.75;23.75;;;;;5.47;100.00;99906.03;5064943;27;47009;-75
2022/12/14 09:36:49;;;;;;;;;26.75;22.75;;;;;5.52;100.00;99914.84;5065227;28;46444;-74
2022/12/14 09:39:15;;;;;;;;;31.25;23.25;;;;;5.56;100.00;99905.31;5062938;27;45287;-75
2022/12/14 09:42:04;;;;;;;;;34.50;30.75;;;;;5.60;100.00;99922.84;5046273;27;46028;-73
2022/12/14 09:44:57;;;;;;;;;39.75;30.00;;;;;5.63;100.00;99922.00;5063698;27;45731;-73
2022/12/14 09:47:34;;;;;;;;;19.75;19.00;;;;;5.64;100.00;99914.16;5059224;27;45838;-77
2022/12/14 09:50:06;;;;;;;;;33.00;23.00;;;;;5.66;100.00;99906.34;5046774;27;45491;-74
2022/12/14 09:52:39;;;;;;;;;43.25;31.25;;;;;5.66;100.00;99908.97;5052401;28;45995;-73
2022/12/14 09:55:15;;;;;;;;;33.75;22.00;;;;;5.70;100.00;99919.50;5052594;28;45529;-73
2022/12/14 09:57:43;;;;;;;;;36.25;27.75;;;;;5.69;100.00;99904.63;5062042;27;46439;-74
2022/12/14 10:00:19;;;;;;;;;34.50;26.75;;;;;5.60;100.00;99914.97;5048514;28;45538;-75
2022/12/14 10:03:10;;;;;;;;;32.00;26.50;;;;;5.58;100.00;99897.47;5061896;28;45570;-74
2022/12/14 10:05:58;;;;;;;;;38.75;33.25;;;;;5.56;100.00;99913.16;5048753;27;45545;-74
2022/12/14 10:08:41;;;;;;;;;33.25;23.25;;;;;5.56;100.00;99913.16;5065218;27;45618;-75
2022/12/14 10:13:48;;;;;;;;;30.75;27.25;;;;;5.62;100.00;99925.47;5060822;27;68875;-74
2022/12/14 10:16:37;;;;;;;;;29.25;22.25;;;;;5.67;100.00;99934.28;5046951;28;45300;-75
2022/12/14 10:19:17;;;;;;;;;44.00;32.00;;;;;5.67;100.00;99921.19;5054111;27;45508;-73
2022/12/14 10:21:53;;;;;;;;;37.25;26.25;;;;;5.81;100.00;99930.16;5063204;27;45415;-73
2022/12/14 10:24:25;;;;;;;;;33.50;26.25;;;;;5.85;100.00;99931.94;5063163;27;45409;-75
2022/12/14 10:26:52;;;;;;;;;28.00;25.50;;;;;5.92;100.00;99928.63;5062501;28;45437;-73
2022/12/14 10:29:38;;;;;;;;;35.25;25.25;;;;;5.92;100.00;99925.13;5063288;27;45926;-73
2022/12/14 10:32:12;;;;;;;;;35.50;27.50;;;;;5.87;100.00;99918.91;5057659;27;45318;-73
2022/12/14 10:34:39;;;;;;;;;29.25;24.25;;;;;5.84;100.00;99922.31;5066363;27;45388;-73
2022/12/14 10:37:24;;;;;;;;;32.50;19.75;;;;;5.83;100.00;99923.19;5056940;27;45412;-73
2022/12/14 10:40:04;;;;;;;;;40.50;25.00;;;;;5.78;100.00;99925.75;5059124;28;46525;-77
2022/12/14 10:42:41;;;;;;;;;31.75;27.25;;;;;5.75;100.00;99923.09;5065418;28;45504;-74
2022/12/14 10:45:07;;;;;;;;;38.50;28.00;;;;;5.72;100.00;99930.88;5061089;27;45345;-75
2022/12/14 10:47:43;;;;;;;;;31.00;26.00;;;;;5.66;100.00;99920.31;5063397;27;45556;-76
2022/12/14 10:50:43;;;;;;;;;36.50;27.25;;;;;5.67;100.00;99929.94;5062442;27;45523;-75
2022/12/14 10:53:16;;;;;;;;;33.50;27.75;;;;;5.64;100.00;99931.59;5060787;27;45474;-73
2022/12/14 10:55:43;;;;;;;;;18.25;15.50;;;;;5.63;100.00;99946.44;5053291;28;45370;-72
2022/12/14 10:58:10;;;;;;;;;32.00;26.00;;;;;5.64;100.00;99934.22;5047854;28;45630;-73
2022/12/14 11:00:36;;;;;;;;;39.75;29.25;;;;;5.65;100.00;99936.00;5030587;27;47972;-75
2022/12/14 11:03:01;;;;;;;;;36.75;29.25;;;;;5.72;100.00;99936.13;5061994;28;58297;-75
2022/12/14 11:05:40;;;;;;;;;33.50;27.50;;;;;5.78;100.00;99938.84;5046616;28;45912;-73
2022/12/14 11:08:06;;;;;;;;;35.50;25.75;;;;;5.83;100.00;99938.03;5053462;28;45419;-73
2022/12/14 11:10:34;;;;;;;;;42.25;33.25;;;;;5.89;100.00;99943.38;5060135;28;46618;-73
2022/12/14 11:13:14;;;;;;;;;40.75;31.75;;;;;5.91;100.00;99923.28;5042422;28;45630;-73
2022/12/14 11:15:42;;;;;;;;;39.00;28.50;;;;;5.97;100.00;99929.56;5039083;28;45427;-76
2022/12/14 11:18:10;;;;;;;;;28.50;22.50;;;;;6.01;100.00;99928.72;5042797;28;45372;-74
2022/12/14 11:20:37;;;;;;;;;33.50;24.75;;;;;6.00;100.00;99921.72;5070436;27;46578;-73
2022/12/14 11:23:13;;;;;;;;;28.50;24.50;;;;;6.01;100.00;99933.09;5064671;27;45467;-75
2022/12/14 11:25:41;;;;;;;;;28.25;22.75;;;;;6.02;100.00;99930.53;5044120;28;45346;-75
2022/12/14 11:28:32;;;;;;;;;28.25;23.25;;;;;6.03;100.00;99931.41;5042775;27;45561;-74
2022/12/14 11:31:04;;;;;;;;;31.25;27.00;;;;;6.06;100.00;99935.78;5059063;28;45796;-75
2022/12/14 11:33:50;;;;;;;;;32.50;23.00;;;;;6.12;100.00;99944.59;5061158;28;45574;-74
2022/12/14 11:36:35;;;;;;;;;29.50;23.50;;;;;6.17;100.00;99940.31;5054975;27;45730;-74
2022/12/14 11:39:17;;;;;;;;;35.75;28.50;;;;;6.25;100.00;99946.56;5048297;28;45472;-73
2022/12/14 11:41:45;;;;;;;;;33.25;26.75;;;;;6.37;100.00;99966.81;5050130;27;45999;-75
2022/12/14 11:44:14;;;;;;;;;37.25;23.75;;;;;6.44;100.00;99952.03;5051177;28;45409;-73
2022/12/14 11:47:17;;;;;;;;;37.75;24.75;;;;;6.52;100.00;99950.41;5067707;27;45386;-75
2022/12/14 11:49:50;;;;;;;;;31.50;25.25;;;;;6.64;100.00;99942.69;5059442;27;45379;-73
2022/12/14 11:52:36;;;;;;;;;35.75;26.00;;;;;6.71;99.74;99931.44;5061241;27;45937;-76